Rain From: 25-09-2020 00:00 Until: 20:00 warning for: Rain Level: Yellow info button





NORTHAMPTON WEATHER

The latest weather and forecasts for Hardingstone

run by 1st Hardingstone Viking Scout Troop.


Thunder radar more information blitzortung!


warning for Rain more information rain snow radar


Nearby METAR Reports

   
EGTC - Cranfield, United Kingdom
Distance from station: SE 24 km
Updated: Sep 24 2020 4:50 pm
NOT Current
Partly Cloudy  
Partly Cloudy  
   Wind: SSW 8 kts
Wind: SSW 8 kts
Temperature: 12°C
Dew Point: 5°C
Humidity: 63%
Barometer: 993 mb
Clouds: Partly Cloudy
Visibility: More than 10 km
Cloud details: Partly Cloudy 3400 ft
EGTC 241550Z 20008KT 9999 SCT034 12/05 Q0993
EGTK - Oxford, United Kingdom
Distance from station: SW 51 km
Updated: Sep 24 2020 8:20 pm
NOT Current
Clear  
Clear  
   Wind: SSW 2 kts
Wind: SSW 2 kts
Temperature: 8°C
Dew Point: 6°C
Humidity: 87%
Barometer: 993 mb
Visibility: More than 10 km
Cloud details: Clear
EGTK 241920Z 20002KT CAVOK 08/06 Q0993
EGGW - Luton Airport, United Kingdom
Distance from station: SE 52 km
Updated: Sep 25 2020 3:20 am
Mostly Cloudy  
Mostly Cloudy  
   Wind: NW 10 kts
Wind: NW 10 kts
Temperature: 8°C
Wind Chill: 5°C
Dew Point: 6°C
Humidity: 87%
Barometer: 995 mb
Clouds: Mostly Cloudy
Visibility: More than 10 km
Cloud details: Partly Cloudy 3700 ft,
Mostly Cloudy 4500 ft
EGGW 250220Z AUTO 32010KT 9999 SCT037 BKN045 08/06 Q0995
EGXT - Wittering Raf, United Kingdom
Distance from station: NNE 53 km
Updated: Sep 25 2020 2:50 am
Light Rain, Mostly Cloudy  
Light Rain, Mostly Cloudy  
   Wind: NW 10 kts
Wind: NW 10 kts
Temperature: 8°C
Wind Chill: 5°C
Dew Point: 8°C
Humidity: 100%
Barometer: 994 mb
Clouds: Mostly Cloudy
Visibility: More than 10 km
Cloud details: Partly Cloudy 4300 ft,
Mostly Cloudy 5000 ft
EGXT 250150Z AUTO 32010KT 9999 -RA SCT043/// BKN050/// 08/08 Q0994
EGBB - Birmingham Airpo, United Kingdom
Distance from station: WNW 65 km
Updated: Sep 25 2020 3:20 am
Few Clouds  
Few Clouds  
   Wind: NW 8 kts
Wind: NW 8 kts
Temperature: 7°C
Wind Chill: 4°C
Dew Point: 5°C
Humidity: 87%
Barometer: 997 mb
Clouds: Few Clouds
Visibility: More than 10 km
Cloud details: Few Clouds 2200 ft
EGBB 250220Z 31008KT 9999 FEW022 07/05 Q0997
EGUB - Benson Raf, United Kingdom
Distance from station: S 67 km
Updated: Sep 25 2020 2:50 am
  
  
   Wind: NW 5 kts
Wind: NW 5 kts
Temperature: 5°C
Wind Chill: 3°C
Dew Point: 5°C
Humidity: 100%
Barometer: 996 mb
EGUB 250150Z AUTO 32005KT //// // ///////// 05/05 Q0996
EGVN - Brize Norton Raf, United Kingdom
Distance from station: SW 69 km
Updated: Sep 25 2020 3:20 am
Clear  
Clear  
   Wind: NW 8 kts
Wind: NW 8 kts
Temperature: 7°C
Wind Chill: 4°C
Dew Point: 5°C
Humidity: 87%
Barometer: 997 mb
Visibility: More than 10 km
Cloud details: Clear
EGVN 250220Z 31008KT CAVOK 07/05 Q0997 NOSIG RMK BLU BLU
EGSC - Cambridge, United Kingdom
Distance from station: E 72 km
Updated: Sep 24 2020 5:50 pm
NOT Current
Partly Cloudy  
Partly Cloudy  
   Wind: South 8 kts
Wind: South 8 kts
Temperature: 12°C
Dew Point: 6°C
Humidity: 67%
Barometer: 994 mb
Clouds: Partly Cloudy
Visibility: More than 10 km
Cloud details: Partly Cloudy 4000 ft
EGSC 241650Z 18008KT 9999 SCT040 12/06 Q0994
EGNX - East Midlands, United Kingdom
Distance from station: NNW 73 km
Updated: Sep 25 2020 3:20 am
Partly Cloudy  
Partly Cloudy  
   Wind: NW 9 kts
Wind: NW 9 kts
Temperature: 8°C
Wind Chill: 5°C
Dew Point: 6°C
Humidity: 87%
Barometer: 997 mb
Clouds: Partly Cloudy
Visibility: More than 10 km
Cloud details: Partly Cloudy 1200 ft
EGNX 250220Z 31009KT 9999 SCT012 08/06 Q0997
EGWU - Northolt Raf, United Kingdom
Distance from station: SSE 80 km
Updated: Sep 25 2020 2:50 am
Clear  
Clear  
   Wind: NNW 7 kts
Wind: NNW 7 kts
Temperature: 7°C
Wind Chill: 4°C
Dew Point: 6°C
Humidity: 93%
Barometer: 994 mb
Clouds: Clear
Visibility: More than 10 km
Cloud details: Clear
EGWU 250150Z AUTO 34007KT 9999 // NCD 07/06 Q0994
  

Script developed by  Saratoga-weather.org Adapted for the template by  Weerstation Leuven

You find our weather info also at:

UK Metoffice

WeatherCloud

Weather Underground

United Kingdom Weather Network

AWEKAS

Citizen Weather Observer Program (CWOP)

HAMweather, WeatherForYou, PWS Weather

Equipment we use:

Weather-station
Davis VP2

Weather-program
Weather Display

Provider

Davis VP2

Weather Display